createdAt,value
2022-08-17T00:00:51.912Z,71.73
2022-08-17T00:01:52.567Z,71.73
2022-08-17T00:02:51.104Z,72.24
2022-08-17T00:03:51.013Z,72.44
2022-08-17T00:04:51.010Z,72.07
2022-08-17T00:05:51.036Z,71.83
2022-08-17T00:06:51.002Z,71.94
2022-08-17T00:07:51.134Z,72.17
2022-08-17T00:08:50.991Z,71.97
2022-08-17T00:09:50.969Z,72.07
2022-08-17T00:10:50.982Z,72.34
2022-08-17T00:12:40.386Z,71.94
2022-08-17T00:12:52.347Z,72.14
2022-08-17T00:13:50.935Z,71.87
2022-08-17T00:14:51.954Z,72.03
2022-08-17T00:15:50.925Z,72.07
2022-08-17T00:16:57.433Z,72.14
2022-08-17T00:17:51.905Z,71.83
2022-08-17T00:19:01.476Z,71.83
2022-08-17T00:19:51.891Z,71.87
2022-08-17T00:20:50.891Z,71.83
2022-08-17T00:22:32.856Z,71.87
2022-08-17T00:22:52.054Z,71.87
2022-08-17T00:23:50.859Z,72.67
2022-08-17T00:24:50.882Z,72.44
2022-08-17T00:25:50.855Z,71.87
2022-08-17T00:26:50.842Z,72.17
2022-08-17T00:27:50.832Z,72.47
2022-08-17T00:28:50.832Z,72.44
2022-08-17T00:29:50.843Z,72.47
2022-08-17T00:30:53.181Z,72.47
2022-08-17T00:31:50.805Z,72.67
2022-08-17T00:33:12.481Z,71.77
2022-08-17T00:33:51.791Z,72.07
2022-08-17T00:34:50.782Z,72.37
2022-08-17T00:35:50.785Z,72.97
2022-08-17T00:36:50.808Z,73.32
2022-08-17T00:37:50.773Z,73.08
2022-08-17T00:38:50.774Z,73.92
2022-08-17T00:39:50.796Z,73.61
2022-08-17T00:40:51.827Z,73.82
2022-08-17T00:41:50.756Z,73.82
2022-08-17T00:42:50.788Z,73.72
2022-08-17T00:43:50.711Z,73.92
2022-08-17T00:44:50.729Z,74.12
2022-08-17T00:45:50.739Z,74.32
2022-08-17T00:46:50.708Z,73.75
2022-08-17T00:47:50.688Z,74.02
2022-08-17T00:48:50.680Z,73.61
2022-08-17T00:49:50.674Z,73.82
2022-08-17T00:50:50.664Z,74.15
2022-08-17T00:51:50.682Z,74.12
2022-08-17T00:52:50.828Z,74.26
2022-08-17T00:53:50.639Z,74.35
2022-08-17T00:54:50.645Z,74.76
2022-08-17T00:55:50.642Z,74.05
2022-08-17T00:56:50.679Z,74.46
2022-08-17T00:57:55.070Z,74.66
2022-08-17T00:58:50.598Z,74.76
2022-08-17T00:59:55.979Z,75.16
2022-08-17T01:00:51.602Z,74.66
2022-08-17T01:01:50.585Z,74.86
2022-08-17T01:02:50.597Z,74.86
2022-08-17T01:03:50.570Z,74.86
2022-08-17T01:04:50.547Z,74.66
2022-08-17T01:05:50.546Z,75.16
2022-08-17T01:06:50.617Z,75.06
2022-08-17T01:07:50.544Z,74.86
2022-08-17T01:08:50.535Z,75.16
2022-08-17T01:09:51.517Z,75.16
2022-08-17T01:10:58.882Z,74.86
2022-08-17T01:11:51.524Z,75.50
2022-08-17T01:12:50.662Z,75.46
2022-08-17T01:13:50.510Z,75.80
2022-08-17T01:14:50.499Z,75.20
2022-08-17T01:15:50.505Z,75.90
2022-08-17T01:16:50.483Z,76.00
2022-08-17T01:17:50.458Z,75.60
2022-08-17T01:18:50.447Z,75.10
2022-08-17T01:19:50.457Z,76.00
2022-08-17T01:20:50.450Z,74.90
2022-08-17T01:21:50.430Z,75.60
2022-08-17T01:22:50.614Z,75.60
2022-08-17T01:23:50.443Z,75.30
2022-08-17T01:24:50.403Z,74.69
2022-08-17T01:25:50.415Z,75.20
2022-08-17T01:26:50.423Z,75.20
2022-08-17T01:27:50.395Z,75.20
2022-08-17T01:28:54.974Z,75.50
2022-08-17T01:29:50.367Z,75.30
2022-08-17T01:30:57.342Z,75.40
2022-08-17T01:31:51.380Z,75.60
2022-08-17T01:32:50.640Z,76.00
2022-08-17T01:33:50.410Z,75.60
2022-08-17T01:34:50.907Z,75.80
2022-08-17T01:35:50.342Z,75.54
2022-08-17T01:36:50.321Z,76.20
2022-08-17T01:37:50.314Z,76.44
2022-08-17T01:38:50.324Z,76.24
2022-08-17T01:39:50.375Z,76.31
2022-08-17T01:40:50.290Z,76.31
2022-08-17T01:41:51.284Z,76.24
2022-08-17T01:42:50.453Z,76.14
2022-08-17T01:43:50.265Z,76.04
2022-08-17T01:44:50.258Z,76.24
2022-08-17T01:45:50.296Z,77.04
2022-08-17T01:46:51.266Z,77.19
2022-08-17T01:47:50.238Z,76.78
2022-08-17T01:48:50.231Z,77.89
2022-08-17T01:49:50.238Z,77.28
2022-08-17T01:50:50.218Z,76.75
2022-08-17T01:51:50.230Z,77.69
2022-08-17T01:52:50.366Z,77.39
2022-08-17T01:53:50.191Z,76.88
2022-08-17T01:54:50.187Z,77.69
2022-08-17T01:55:50.183Z,77.69
2022-08-17T01:56:50.164Z,78.13
2022-08-17T01:57:50.190Z,78.43
2022-08-17T01:58:50.154Z,78.23
2022-08-17T01:59:50.144Z,78.13
2022-08-17T02:01:00.852Z,78.23
2022-08-17T02:01:51.172Z,78.03
2022-08-17T02:02:50.330Z,78.23
2022-08-17T02:03:59.219Z,78.03
2022-08-17T02:04:51.108Z,79.04
2022-08-17T02:05:50.100Z,78.13
2022-08-17T02:06:53.745Z,78.13
2022-08-17T02:07:59.581Z,78.13
2022-08-17T02:09:01.814Z,78.84
2022-08-17T02:09:52.775Z,78.30
2022-08-17T02:10:50.071Z,78.50
2022-08-17T02:11:50.044Z,77.99
2022-08-17T02:12:50.236Z,78.03
2022-08-17T02:13:57.851Z,78.03
2022-08-17T02:14:51.041Z,77.49
2022-08-17T02:15:50.029Z,77.79
2022-08-17T02:16:50.008Z,76.78
2022-08-17T02:17:50.006Z,76.88
2022-08-17T02:18:49.994Z,77.19
2022-08-17T02:19:50.011Z,76.98
2022-08-17T02:20:49.978Z,77.69
2022-08-17T02:21:49.972Z,76.38
2022-08-17T02:22:50.070Z,76.18
2022-08-17T02:23:49.969Z,76.18
2022-08-17T02:24:59.731Z,75.87
2022-08-17T02:25:50.953Z,75.27
2022-08-17T02:26:49.933Z,75.37
2022-08-17T02:27:49.931Z,76.04
2022-08-17T02:28:49.930Z,76.38
2022-08-17T02:29:49.944Z,76.78
2022-08-17T02:31:01.156Z,76.48
2022-08-17T02:31:50.900Z,77.22
2022-08-17T02:32:50.016Z,77.22
2022-08-17T02:34:00.495Z,77.22
2022-08-17T02:34:50.884Z,77.42
2022-08-17T02:35:49.863Z,77.19
2022-08-17T02:36:49.862Z,77.08
2022-08-17T02:37:51.829Z,77.12
2022-08-17T02:38:50.845Z,77.22
2022-08-17T02:39:49.933Z,77.32
2022-08-17T02:40:49.826Z,76.92
2022-08-17T02:41:49.827Z,78.03
2022-08-17T02:42:49.976Z,77.22
2022-08-17T02:43:49.817Z,77.53
2022-08-17T02:44:49.790Z,77.93
2022-08-17T02:45:49.807Z,78.06
2022-08-17T02:46:49.774Z,78.17
2022-08-17T02:47:49.799Z,78.27
2022-08-17T02:48:49.759Z,78.17
2022-08-17T02:49:54.203Z,77.86
2022-08-17T02:50:50.752Z,78.06
2022-08-17T02:51:49.743Z,77.86
2022-08-17T02:53:02.249Z,77.83
2022-08-17T02:53:50.730Z,76.51
2022-08-17T02:54:49.718Z,76.51
2022-08-17T02:55:49.710Z,76.72
2022-08-17T02:56:49.698Z,77.12
2022-08-17T02:57:49.695Z,77.12
2022-08-17T02:58:49.714Z,77.12
2022-08-17T02:59:49.675Z,77.22
2022-08-17T03:00:49.664Z,76.82
2022-08-17T03:01:49.686Z,76.92
2022-08-17T03:02:49.832Z,77.97
2022-08-17T03:03:49.645Z,78.47
2022-08-17T03:04:49.661Z,78.06
2022-08-17T03:05:49.641Z,78.50
2022-08-17T03:06:49.623Z,78.10
2022-08-17T03:07:49.624Z,79.01
2022-08-17T03:08:49.638Z,78.30
2022-08-17T03:09:49.632Z,79.01
2022-08-17T03:10:49.587Z,78.20
2022-08-17T03:11:49.613Z,79.21
2022-08-17T03:12:49.780Z,78.41
2022-08-17T03:13:49.574Z,78.71
2022-08-17T03:14:49.565Z,78.81
2022-08-17T03:15:49.581Z,78.91
2022-08-17T03:16:49.616Z,79.11
2022-08-17T03:17:49.543Z,79.92
2022-08-17T03:18:49.560Z,79.52
2022-08-17T03:19:49.532Z,79.72
2022-08-17T03:20:49.518Z,80.12
2022-08-17T03:21:54.796Z,80.36
2022-08-17T03:22:53.377Z,80.66
2022-08-17T03:23:49.499Z,80.66
2022-08-17T03:24:50.513Z,79.96
2022-08-17T03:25:49.488Z,79.96
2022-08-17T03:26:49.475Z,79.55
2022-08-17T03:27:49.482Z,80.26
2022-08-17T03:28:49.475Z,80.16
2022-08-17T03:29:49.459Z,80.57
2022-08-17T03:30:49.469Z,81.21
2022-08-17T03:31:49.597Z,81.01
2022-08-17T03:32:49.701Z,80.91
2022-08-17T03:33:49.434Z,80.46
2022-08-17T03:34:49.413Z,80.91
2022-08-17T03:35:49.409Z,81.21
2022-08-17T03:36:49.408Z,81.31
2022-08-17T03:38:00.040Z,81.21
2022-08-17T03:38:50.394Z,80.71
2022-08-17T03:39:49.447Z,81.21
2022-08-17T03:40:56.753Z,80.91
2022-08-17T03:41:50.389Z,81.51
2022-08-17T03:42:49.429Z,81.41
2022-08-17T03:43:49.359Z,81.62
2022-08-17T03:44:49.352Z,81.62
2022-08-17T03:45:49.337Z,81.62
2022-08-17T03:46:49.357Z,81.21
2022-08-17T03:47:49.325Z,81.51
2022-08-17T03:48:49.318Z,81.11
2022-08-17T03:49:49.312Z,80.91
2022-08-17T03:50:49.313Z,80.91
2022-08-17T03:51:49.318Z,81.21
2022-08-17T03:52:51.718Z,81.37
2022-08-17T03:53:49.302Z,82.12
2022-08-17T03:54:49.262Z,81.71
2022-08-17T03:55:49.270Z,81.71
2022-08-17T03:56:49.259Z,81.71
2022-08-17T03:57:49.255Z,81.51
2022-08-17T03:58:49.254Z,81.21
2022-08-17T03:59:49.266Z,80.77
2022-08-17T04:00:49.219Z,80.66
2022-08-17T04:01:49.311Z,81.11
2022-08-17T04:02:49.408Z,80.60
2022-08-17T04:03:49.203Z,80.80
2022-08-17T04:04:49.185Z,80.20
2022-08-17T04:05:49.204Z,79.39
2022-08-17T04:06:49.174Z,79.96
2022-08-17T04:07:49.197Z,79.25
2022-08-17T04:08:49.163Z,78.10
2022-08-17T04:09:49.156Z,78.55
2022-08-17T04:10:49.146Z,78.14
2022-08-17T04:11:49.175Z,78.81
2022-08-17T04:12:49.339Z,77.80
2022-08-17T04:13:49.128Z,78.30
2022-08-17T04:14:52.037Z,78.30
2022-08-17T04:15:49.103Z,78.61
2022-08-17T04:16:49.102Z,78.34
2022-08-17T04:17:49.112Z,78.10
2022-08-17T04:18:49.083Z,78.55
2022-08-17T04:19:49.076Z,78.95
2022-08-17T04:20:49.061Z,78.85
2022-08-17T04:21:49.099Z,79.25
2022-08-17T04:22:49.175Z,80.36
2022-08-17T04:23:49.071Z,79.79
2022-08-17T04:24:49.030Z,79.86
2022-08-17T04:25:49.028Z,80.30
2022-08-17T04:26:53.655Z,80.60
2022-08-17T04:27:50.023Z,80.66
2022-08-17T04:28:49.026Z,80.26
2022-08-17T04:29:54.938Z,80.60
2022-08-17T04:30:49.999Z,80.40
2022-08-17T04:31:48.992Z,80.91
2022-08-17T04:33:04.252Z,80.91
2022-08-17T04:33:49.994Z,80.94
2022-08-17T04:34:48.966Z,81.31
2022-08-17T04:35:48.984Z,81.51
2022-08-17T04:36:50.208Z,81.65
2022-08-17T04:37:48.939Z,81.96
2022-08-17T04:38:48.937Z,81.55
2022-08-17T04:39:49.036Z,81.35
2022-08-17T04:40:48.938Z,81.31
2022-08-17T04:41:48.925Z,81.21
2022-08-17T04:42:49.040Z,81.21
2022-08-17T04:43:49.907Z,81.21
2022-08-17T04:44:48.897Z,81.05
2022-08-17T04:45:55.212Z,81.65
2022-08-17T04:46:48.930Z,81.76
2022-08-17T04:47:48.866Z,81.51
2022-08-17T04:48:48.853Z,81.76
2022-08-17T04:49:48.854Z,81.85
2022-08-17T04:50:48.838Z,81.85
2022-08-17T04:51:56.280Z,82.16
2022-08-17T04:52:48.843Z,81.62
2022-08-17T04:53:55.031Z,81.51
2022-08-17T04:54:49.803Z,81.21
2022-08-17T04:55:48.803Z,80.30
2022-08-17T04:56:48.807Z,79.25
2022-08-17T04:57:48.789Z,79.55
2022-08-17T04:58:49.796Z,79.01
2022-08-17T04:59:48.774Z,77.93
2022-08-17T05:00:48.810Z,75.74
2022-08-17T05:01:48.876Z,74.05
2022-08-17T05:02:50.179Z,72.27
2022-08-17T05:03:48.744Z,71.03
2022-08-17T05:04:48.736Z,69.96
2022-08-17T05:05:48.758Z,68.12
2022-08-17T05:06:48.725Z,66.98
2022-08-17T05:07:48.735Z,65.94
2022-08-17T05:08:48.738Z,65.41
2022-08-17T05:09:48.693Z,64.98
2022-08-17T05:10:48.700Z,63.84
2022-08-17T05:11:48.682Z,63.51
2022-08-17T05:12:48.744Z,62.78
2022-08-17T05:13:48.688Z,62.08
2022-08-17T05:14:48.662Z,62.08
2022-08-17T05:15:48.695Z,61.98
2022-08-17T05:16:48.651Z,62.51
2022-08-17T05:17:48.638Z,63.24
2022-08-17T05:18:48.655Z,62.92
2022-08-17T05:19:51.884Z,62.88
2022-08-17T05:20:48.635Z,61.55
2022-08-17T05:21:48.608Z,61.19
2022-08-17T05:22:48.692Z,59.56
2022-08-17T05:23:50.314Z,59.04
2022-08-17T05:24:55.442Z,58.11
2022-08-17T05:25:49.767Z,57.48
2022-08-17T05:26:48.576Z,57.15
2022-08-17T05:27:48.602Z,56.23
2022-08-17T05:28:48.564Z,56.06
2022-08-17T05:29:48.558Z,55.91
2022-08-17T05:30:48.607Z,55.41
2022-08-17T05:31:48.542Z,55.80
2022-08-17T05:32:48.576Z,54.61
2022-08-17T05:33:48.521Z,54.81
2022-08-17T05:34:48.512Z,55.73
2022-08-17T05:35:48.510Z,56.01
2022-08-17T05:36:48.494Z,55.08
2022-08-17T05:37:48.482Z,54.01
2022-08-17T05:38:48.500Z,53.21
2022-08-17T05:39:48.518Z,52.91
2022-08-17T05:40:48.478Z,52.79
2022-08-17T05:41:48.509Z,52.89
2022-08-17T05:42:48.454Z,50.98
2022-08-17T05:43:50.890Z,51.67
2022-08-17T05:44:48.458Z,51.25
2022-08-17T05:45:55.795Z,50.53
2022-08-17T05:46:49.435Z,50.60
2022-08-17T05:47:48.422Z,49.19
2022-08-17T05:48:48.406Z,49.07
2022-08-17T05:49:49.114Z,48.45
2022-08-17T05:50:48.419Z,48.23
2022-08-17T05:51:48.393Z,48.21
2022-08-17T05:52:48.388Z,46.89
2022-08-17T05:53:48.377Z,46.18
2022-08-17T05:54:48.366Z,45.17
2022-08-17T05:55:48.383Z,45.35
2022-08-17T05:56:48.355Z,45.27
2022-08-17T05:57:53.811Z,46.06
2022-08-17T05:58:49.345Z,45.32
2022-08-17T05:59:48.352Z,44.02
2022-08-17T06:00:48.342Z,44.51
2022-08-17T06:01:48.344Z,44.32
2022-08-17T06:02:48.350Z,44.42
2022-08-17T06:03:48.315Z,44.32
2022-08-17T06:04:48.305Z,43.59
2022-08-17T06:05:48.323Z,42.89
2022-08-17T06:06:48.299Z,42.69
2022-08-17T06:07:48.300Z,43.19
2022-08-17T06:08:48.288Z,43.82
2022-08-17T06:09:48.271Z,43.21
2022-08-17T06:10:48.281Z,43.62
2022-08-17T06:11:53.510Z,44.64
2022-08-17T06:12:48.334Z,43.82
2022-08-17T06:13:48.251Z,43.01
2022-08-17T06:14:48.233Z,43.09
2022-08-17T06:15:48.251Z,41.81
2022-08-17T06:16:48.238Z,41.81
2022-08-17T06:17:48.225Z,42.60
2022-08-17T06:18:48.206Z,41.69
2022-08-17T06:19:48.212Z,41.91
2022-08-17T06:20:48.213Z,41.49
2022-08-17T06:21:48.191Z,42.18
2022-08-17T06:22:48.203Z,41.38
2022-08-17T06:23:48.183Z,41.14
2022-08-17T06:24:48.191Z,40.21
2022-08-17T06:25:48.170Z,39.21
2022-08-17T06:26:48.158Z,39.60
2022-08-17T06:27:48.190Z,39.80
2022-08-17T06:28:49.150Z,40.41
2022-08-17T06:29:48.168Z,40.90
2022-08-17T06:30:59.559Z,40.31
2022-08-17T06:31:49.170Z,39.72
2022-08-17T06:32:48.119Z,39.39
2022-08-17T06:33:48.116Z,39.25
2022-08-17T06:34:48.128Z,38.76
2022-08-17T06:35:48.116Z,38.45
2022-08-17T06:36:48.123Z,38.06
2022-08-17T06:37:48.095Z,38.02
2022-08-17T06:38:48.079Z,36.94
2022-08-17T06:39:48.105Z,37.65
2022-08-17T06:40:48.060Z,36.65
2022-08-17T06:41:48.065Z,36.82
2022-08-17T06:43:04.981Z,36.12
2022-08-17T06:43:49.041Z,37.77
2022-08-17T06:44:51.411Z,35.21
2022-08-17T06:45:48.039Z,36.08
2022-08-17T06:46:48.021Z,34.89
2022-08-17T06:47:48.037Z,34.89
2022-08-17T06:48:48.014Z,36.38
2022-08-17T06:49:53.188Z,36.88
2022-08-17T06:50:48.001Z,35.91
2022-08-17T06:51:48.006Z,36.59
2022-08-17T06:52:48.112Z,36.18
2022-08-17T06:53:48.039Z,35.38
2022-08-17T06:54:47.978Z,34.48
2022-08-17T06:55:47.972Z,34.88
2022-08-17T06:56:52.931Z,35.35
2022-08-17T06:57:48.960Z,35.95
2022-08-17T06:58:47.944Z,36.18
2022-08-17T06:59:55.545Z,36.43
2022-08-17T07:00:47.997Z,37.86
2022-08-17T07:01:47.924Z,39.48
2022-08-17T07:02:51.890Z,39.66
2022-08-17T07:03:48.935Z,37.94
2022-08-17T07:04:47.938Z,37.76
2022-08-17T07:05:47.906Z,38.84
2022-08-17T07:06:47.923Z,39.54
2022-08-17T07:07:47.895Z,39.17
2022-08-17T07:08:47.886Z,39.56
2022-08-17T07:09:47.889Z,39.66
2022-08-17T07:10:47.883Z,39.98
2022-08-17T07:11:47.892Z,39.17
2022-08-17T07:12:47.862Z,38.13
2022-08-17T07:13:51.087Z,37.79
2022-08-17T07:14:47.851Z,34.91
2022-08-17T07:15:47.837Z,35.77
2022-08-17T07:16:47.835Z,35.36
2022-08-17T07:17:48.511Z,33.48
2022-08-17T07:18:47.821Z,33.15
2022-08-17T07:19:47.807Z,32.96
2022-08-17T07:20:47.805Z,32.94
2022-08-17T07:21:47.831Z,33.44
2022-08-17T07:22:55.251Z,33.95
2022-08-17T07:23:47.788Z,33.56
2022-08-17T07:24:47.783Z,33.56
2022-08-17T07:25:47.777Z,33.04
2022-08-17T07:26:47.784Z,33.34
2022-08-17T07:27:47.766Z,33.43
2022-08-17T07:28:47.750Z,32.75
2022-08-17T07:29:47.748Z,33.33
2022-08-17T07:30:47.781Z,32.96
2022-08-17T07:31:47.737Z,33.33
2022-08-17T07:32:47.745Z,33.02
2022-08-17T07:33:47.724Z,32.73
2022-08-17T07:34:47.713Z,32.82
2022-08-17T07:35:47.712Z,33.12
2022-08-17T07:36:47.705Z,33.29
2022-08-17T07:37:47.698Z,33.20
2022-08-17T07:38:47.695Z,33.11
2022-08-17T07:39:59.729Z,32.52
2022-08-17T07:40:48.746Z,33.02
2022-08-17T07:41:53.122Z,32.92
2022-08-17T07:42:48.683Z,34.05
2022-08-17T07:43:47.664Z,34.45
2022-08-17T07:44:47.652Z,36.60
2022-08-17T07:45:47.656Z,34.06
2022-08-17T07:46:47.635Z,35.06
2022-08-17T07:47:47.629Z,35.35
2022-08-17T07:48:47.638Z,35.68
2022-08-17T07:49:47.611Z,34.91
2022-08-17T07:50:49.740Z,36.96
2022-08-17T07:51:47.603Z,35.99
2022-08-17T07:52:52.214Z,36.47
2022-08-17T07:53:47.586Z,36.08
2022-08-17T07:54:47.599Z,36.75
2022-08-17T07:55:47.577Z,36.65
2022-08-17T07:56:47.587Z,37.04
2022-08-17T07:57:47.621Z,36.08
2022-08-17T07:58:47.554Z,37.67
2022-08-17T07:59:47.564Z,37.51
2022-08-17T08:00:47.562Z,37.98
2022-08-17T08:01:47.624Z,37.51
2022-08-17T08:02:48.537Z,37.82
2022-08-17T08:03:50.469Z,37.63
2022-08-17T08:05:03.835Z,38.00
2022-08-17T08:05:49.447Z,37.98
2022-08-17T08:06:47.497Z,38.47
2022-08-17T08:07:47.512Z,37.88
2022-08-17T08:08:47.481Z,37.98
2022-08-17T08:09:47.532Z,37.69
2022-08-17T08:10:47.465Z,38.18
2022-08-17T08:11:47.463Z,37.96
2022-08-17T08:12:47.465Z,36.30
2022-08-17T08:13:47.463Z,38.31
2022-08-17T08:14:47.444Z,38.02
2022-08-17T08:15:50.435Z,37.82
2022-08-17T08:16:48.444Z,39.51
2022-08-17T08:17:47.444Z,38.62
2022-08-17T08:18:55.302Z,38.35
2022-08-17T08:19:47.415Z,38.35
2022-08-17T08:20:53.225Z,38.72
2022-08-17T08:21:48.403Z,38.04
2022-08-17T08:22:47.408Z,38.12
2022-08-17T08:23:47.386Z,38.00
2022-08-17T08:24:47.415Z,37.61
2022-08-17T08:25:50.902Z,38.18
2022-08-17T08:26:47.368Z,38.16
2022-08-17T08:27:47.445Z,36.59
2022-08-17T08:28:47.354Z,35.60
2022-08-17T08:29:47.375Z,35.97
2022-08-17T08:30:47.369Z,34.89
2022-08-17T08:31:47.344Z,35.40
2022-08-17T08:32:47.326Z,35.21
2022-08-17T08:33:47.353Z,35.48
2022-08-17T08:35:01.987Z,34.68
2022-08-17T08:35:48.308Z,34.97
2022-08-17T08:37:12.771Z,35.09
2022-08-17T08:37:48.300Z,34.89
2022-08-17T08:38:47.288Z,35.19
2022-08-17T08:39:47.313Z,34.91
2022-08-17T08:40:47.274Z,35.14
2022-08-17T08:41:47.260Z,36.22
2022-08-17T08:42:47.290Z,35.61
2022-08-17T08:43:52.234Z,37.02
2022-08-17T08:45:00.998Z,36.80
2022-08-17T08:45:48.241Z,36.61
2022-08-17T08:46:47.330Z,36.32
2022-08-17T08:47:47.335Z,36.38
2022-08-17T08:48:56.982Z,36.16
2022-08-17T08:50:04.999Z,34.78
2022-08-17T08:50:48.228Z,35.06
2022-08-17T08:51:47.220Z,34.55
2022-08-17T08:52:47.193Z,34.77
2022-08-17T08:53:47.183Z,33.98
2022-08-17T08:54:47.166Z,33.61
2022-08-17T08:55:47.167Z,35.13
2022-08-17T08:57:11.946Z,36.30
2022-08-17T08:57:48.156Z,36.02
2022-08-17T08:58:47.140Z,36.12
2022-08-17T08:59:51.192Z,36.71
2022-08-17T09:00:48.132Z,36.59
2022-08-17T09:01:47.313Z,34.65
2022-08-17T09:02:47.136Z,35.66
2022-08-17T09:03:52.816Z,36.57
2022-08-17T09:05:12.729Z,36.78
2022-08-17T09:05:48.426Z,37.07
2022-08-17T09:06:47.100Z,37.27
2022-08-17T09:07:47.158Z,37.05
2022-08-17T09:08:47.080Z,36.55
2022-08-17T09:09:47.076Z,36.19
2022-08-17T09:10:47.088Z,36.98
2022-08-17T09:12:01.046Z,36.58
2022-08-17T09:12:48.048Z,36.80
2022-08-17T09:13:47.049Z,37.96
2022-08-17T09:14:48.037Z,37.66
2022-08-17T09:15:47.031Z,37.07
2022-08-17T09:16:47.039Z,36.90
2022-08-17T09:17:47.148Z,36.98
2022-08-17T09:19:02.330Z,37.05
2022-08-17T09:19:48.005Z,36.25
2022-08-17T09:20:50.224Z,36.22
2022-08-17T09:21:48.634Z,35.24
2022-08-17T09:22:47.007Z,36.20
2022-08-17T09:23:46.989Z,34.45
2022-08-17T09:24:46.972Z,35.24
2022-08-17T09:25:46.960Z,35.93
2022-08-17T09:26:46.961Z,35.30
2022-08-17T09:27:46.981Z,35.21
2022-08-17T09:28:46.973Z,33.85
2022-08-17T09:29:46.938Z,34.93
2022-08-17T09:30:46.936Z,35.42
2022-08-17T09:31:49.435Z,34.81
2022-08-17T09:32:46.936Z,34.11
2022-08-17T09:33:46.913Z,33.80
2022-08-17T09:34:47.030Z,32.81
2022-08-17T09:35:46.927Z,33.30
2022-08-17T09:36:46.897Z,33.28
2022-08-17T09:37:46.928Z,32.62
2022-08-17T09:38:46.872Z,33.28
2022-08-17T09:39:46.960Z,32.78
2022-08-17T09:40:46.886Z,33.56
2022-08-17T09:41:48.558Z,33.25
2022-08-17T09:42:46.860Z,32.57
2022-08-17T09:43:46.850Z,31.70
2022-08-17T09:44:46.859Z,32.70
2022-08-17T09:45:46.863Z,33.18
2022-08-17T09:46:46.825Z,33.48
2022-08-17T09:47:46.909Z,34.06
2022-08-17T09:48:46.889Z,33.18
2022-08-17T09:49:46.803Z,32.50
2022-08-17T09:51:01.597Z,32.62
2022-08-17T09:51:47.802Z,32.89
2022-08-17T09:52:46.808Z,32.60
2022-08-17T09:53:46.778Z,32.50
2022-08-17T09:54:46.770Z,31.82
2022-08-17T09:55:46.792Z,32.40
2022-08-17T09:56:56.423Z,32.62
2022-08-17T09:57:47.774Z,33.12
2022-08-17T09:58:46.750Z,33.72
2022-08-17T09:59:46.733Z,33.33
2022-08-17T10:00:46.771Z,32.94
2022-08-17T10:01:46.736Z,33.34
2022-08-17T10:02:46.727Z,33.74
2022-08-17T10:03:46.734Z,34.03
2022-08-17T10:04:46.695Z,33.33
2022-08-17T10:05:46.754Z,32.76
2022-08-17T10:06:46.693Z,33.34
2022-08-17T10:07:46.769Z,33.05
2022-08-17T10:08:46.675Z,33.56
2022-08-17T10:09:46.688Z,33.46
2022-08-17T10:10:56.160Z,34.94
2022-08-17T10:11:48.297Z,34.55
2022-08-17T10:12:47.209Z,33.67
2022-08-17T10:13:53.072Z,33.89
2022-08-17T10:14:46.636Z,33.50
2022-08-17T10:15:47.652Z,33.58
2022-08-17T10:16:46.621Z,33.77
2022-08-17T10:17:46.698Z,33.38
2022-08-17T10:18:46.624Z,33.67
2022-08-17T10:19:46.598Z,33.39
2022-08-17T10:20:46.608Z,33.12
2022-08-17T10:21:46.597Z,33.61
2022-08-17T10:22:51.176Z,33.51
2022-08-17T10:23:46.573Z,33.33
2022-08-17T10:25:21.682Z,34.01
2022-08-17T10:25:55.683Z,34.88
2022-08-17T10:26:56.585Z,34.00
2022-08-17T10:27:47.545Z,34.30
2022-08-17T10:28:46.541Z,34.11
2022-08-17T10:29:48.572Z,33.82
2022-08-17T10:30:46.528Z,34.51
2022-08-17T10:31:46.519Z,35.31
2022-08-17T10:32:46.540Z,35.80
2022-08-17T10:33:46.508Z,35.31
2022-08-17T10:34:46.497Z,35.02
2022-08-17T10:35:46.495Z,35.31
2022-08-17T10:36:46.495Z,35.31
2022-08-17T10:37:46.584Z,35.11
2022-08-17T10:38:46.486Z,35.02
2022-08-17T10:39:50.530Z,34.41
2022-08-17T10:40:47.566Z,35.19
2022-08-17T10:41:46.442Z,35.29
2022-08-17T10:42:46.456Z,35.58
2022-08-17T10:44:37.414Z,35.49
2022-08-17T10:44:47.418Z,35.49
2022-08-17T10:45:47.033Z,36.40
2022-08-17T10:46:46.420Z,36.51
2022-08-17T10:47:55.237Z,35.50
2022-08-17T10:48:46.399Z,35.50
2022-08-17T10:49:46.396Z,35.70
2022-08-17T10:50:46.400Z,35.70
2022-08-17T10:51:46.387Z,35.80
2022-08-17T10:52:46.372Z,35.83
2022-08-17T10:53:46.376Z,36.72
2022-08-17T10:54:46.357Z,36.32
2022-08-17T10:55:46.353Z,36.72
2022-08-17T10:56:46.392Z,36.72
2022-08-17T10:57:46.370Z,35.93
2022-08-17T10:58:46.329Z,36.32
2022-08-17T10:59:46.349Z,37.21
2022-08-17T11:00:46.371Z,36.74
2022-08-17T11:01:46.313Z,38.01
2022-08-17T11:02:46.355Z,38.03
2022-08-17T11:03:46.298Z,38.23
2022-08-17T11:04:46.306Z,38.13
2022-08-17T11:05:46.308Z,39.32
2022-08-17T11:06:46.328Z,37.95
2022-08-17T11:07:46.271Z,38.36
2022-08-17T11:08:46.289Z,38.36
2022-08-17T11:09:46.261Z,39.05
2022-08-17T11:10:51.361Z,38.76
2022-08-17T11:11:47.240Z,39.44
2022-08-17T11:12:46.277Z,39.15
2022-08-17T11:13:46.231Z,38.36
2022-08-17T11:14:46.218Z,39.47
2022-08-17T11:15:46.239Z,39.95
2022-08-17T11:16:46.199Z,38.97
2022-08-17T11:17:46.192Z,38.68
2022-08-17T11:18:46.181Z,39.97
2022-08-17T11:19:46.182Z,39.09
2022-08-17T11:20:46.171Z,38.70
2022-08-17T11:21:46.212Z,38.79
2022-08-17T11:22:46.223Z,38.71
2022-08-17T11:23:46.159Z,39.20
2022-08-17T11:24:46.149Z,38.71
2022-08-17T11:25:46.154Z,38.81
2022-08-17T11:26:46.135Z,38.71
2022-08-17T11:27:46.142Z,39.01
2022-08-17T11:28:46.117Z,38.81
2022-08-17T11:29:50.596Z,38.89
2022-08-17T11:30:47.107Z,38.79
2022-08-17T11:31:46.111Z,38.99
2022-08-17T11:32:47.678Z,38.89
2022-08-17T11:33:46.078Z,38.78
2022-08-17T11:34:46.069Z,38.97
2022-08-17T11:35:46.063Z,39.07
2022-08-17T11:36:46.056Z,38.68
2022-08-17T11:37:46.076Z,38.28
2022-08-17T11:38:46.041Z,38.97
2022-08-17T11:39:46.106Z,38.68
2022-08-17T11:40:46.024Z,38.36
2022-08-17T11:41:46.017Z,38.36
2022-08-17T11:42:46.024Z,38.24
2022-08-17T11:43:46.007Z,38.44
2022-08-17T11:44:46.006Z,37.76
2022-08-17T11:45:46.012Z,36.85
2022-08-17T11:46:45.992Z,36.95
2022-08-17T11:48:02.244Z,37.93
2022-08-17T11:48:46.977Z,38.42
2022-08-17T11:49:45.959Z,38.03
2022-08-17T11:50:46.000Z,38.32
2022-08-17T11:51:45.947Z,37.84
2022-08-17T11:52:46.787Z,37.72
2022-08-17T11:53:45.947Z,36.63
2022-08-17T11:54:45.925Z,36.63
2022-08-17T11:55:45.923Z,37.03
2022-08-17T11:56:45.936Z,38.40
2022-08-17T11:57:45.911Z,37.62
2022-08-17T11:58:45.902Z,37.03
2022-08-17T11:59:45.888Z,37.23
2022-08-17T12:00:45.880Z,37.24
2022-08-17T12:01:45.882Z,38.44
2022-08-17T12:02:48.375Z,38.15
2022-08-17T12:03:55.472Z,38.24
2022-08-17T12:04:46.929Z,38.92
2022-08-17T12:05:45.875Z,37.93
2022-08-17T12:06:45.879Z,38.64
2022-08-17T12:07:45.889Z,38.15
2022-08-17T12:08:45.836Z,38.05
2022-08-17T12:09:45.823Z,38.24
2022-08-17T12:10:45.813Z,38.54
2022-08-17T12:11:55.508Z,38.66
2022-08-17T12:12:46.815Z,38.93
2022-08-17T12:13:45.797Z,38.93
2022-08-17T12:15:08.971Z,38.84
2022-08-17T12:15:45.779Z,39.15
2022-08-17T12:16:45.766Z,38.76
2022-08-17T12:17:45.769Z,38.76
2022-08-17T12:18:45.772Z,39.54
2022-08-17T12:19:45.755Z,39.76
2022-08-17T12:20:45.750Z,39.56
2022-08-17T12:21:45.746Z,39.66
2022-08-17T12:22:45.729Z,39.17
2022-08-17T12:23:45.725Z,39.56
2022-08-17T12:24:45.734Z,39.78
2022-08-17T12:25:45.705Z,39.76
2022-08-17T12:26:45.696Z,39.48
2022-08-17T12:28:05.120Z,39.17
2022-08-17T12:28:46.710Z,39.58
2022-08-17T12:29:45.679Z,40.17
2022-08-17T12:30:45.674Z,39.70
2022-08-17T12:31:45.661Z,39.89
2022-08-17T12:32:45.647Z,39.01
2022-08-17T12:33:45.650Z,39.89
2022-08-17T12:34:45.666Z,40.29
2022-08-17T12:35:45.638Z,39.89
2022-08-17T12:36:45.642Z,40.19
2022-08-17T12:37:45.619Z,40.00
2022-08-17T12:38:45.619Z,39.79
2022-08-17T12:39:45.665Z,40.31
2022-08-17T12:40:45.590Z,40.21
2022-08-17T12:41:45.626Z,40.31
2022-08-17T12:42:45.637Z,41.02
2022-08-17T12:43:45.575Z,40.70
2022-08-17T12:44:50.532Z,40.01
2022-08-17T12:45:46.580Z,40.43
2022-08-17T12:46:45.546Z,39.94
2022-08-17T12:47:45.546Z,39.84
2022-08-17T12:48:55.071Z,40.21
2022-08-17T12:49:46.530Z,40.72
2022-08-17T12:50:45.521Z,41.02
2022-08-17T12:51:45.524Z,41.81
2022-08-17T12:52:45.545Z,41.51